sensor_id;sensor_type;location;lat;lon;timestamp;P1;durP1;ratioP1;P2;durP2;ratioP2
5460;SDS011;2753;49.196;8.286;2022-12-29T00:01:39;2.73;;;2.47;;
5460;SDS011;2753;49.196;8.286;2022-12-29T00:04:05;8.23;;;3.20;;
5460;SDS011;2753;49.196;8.286;2022-12-29T00:06:31;4.97;;;2.20;;
5460;SDS011;2753;49.196;8.286;2022-12-29T00:08:57;2.60;;;2.37;;
5460;SDS011;2753;49.196;8.286;2022-12-29T00:11:24;2.60;;;2.40;;
5460;SDS011;2753;49.196;8.286;2022-12-29T00:13:52;4.53;;;2.47;;
5460;SDS011;2753;49.196;8.286;2022-12-29T00:19:48;4.43;;;2.53;;
5460;SDS011;2753;49.196;8.286;2022-12-29T00:22:32;3.00;;;2.00;;
5460;SDS011;2753;49.196;8.286;2022-12-29T00:25:16;3.03;;;2.30;;
5460;SDS011;2753;49.196;8.286;2022-12-29T00:28:00;3.10;;;2.10;;
5460;SDS011;2753;49.196;8.286;2022-12-29T00:30:44;2.77;;;2.00;;
5460;SDS011;2753;49.196;8.286;2022-12-29T00:33:29;5.13;;;1.97;;
5460;SDS011;2753;49.196;8.286;2022-12-29T00:36:16;2.40;;;2.10;;
5460;SDS011;2753;49.196;8.286;2022-12-29T00:38:53;4.13;;;1.90;;
5460;SDS011;2753;49.196;8.286;2022-12-29T00:42:12;4.63;;;1.90;;
5460;SDS011;2753;49.196;8.286;2022-12-29T00:44:56;3.17;;;2.47;;
5460;SDS011;2753;49.196;8.286;2022-12-29T00:47:22;2.70;;;1.80;;
5460;SDS011;2753;49.196;8.286;2022-12-29T00:49:47;4.60;;;2.03;;
5460;SDS011;2753;49.196;8.286;2022-12-29T00:52:13;3.00;;;1.90;;
5460;SDS011;2753;49.196;8.286;2022-12-29T00:54:39;2.30;;;2.00;;
5460;SDS011;2753;49.196;8.286;2022-12-29T00:57:06;8.03;;;3.50;;
5460;SDS011;2753;49.196;8.286;2022-12-29T00:59:37;7.93;;;3.40;;
5460;SDS011;2753;49.196;8.286;2022-12-29T01:02:04;11.57;;;1.93;;
5460;SDS011;2753;49.196;8.286;2022-12-29T01:04:30;3.03;;;1.53;;
5460;SDS011;2753;49.196;8.286;2022-12-29T01:06:56;2.90;;;1.60;;
5460;SDS011;2753;49.196;8.286;2022-12-29T01:09:21;4.50;;;1.80;;
5460;SDS011;2753;49.196;8.286;2022-12-29T01:12:06;6.40;;;1.70;;
5460;SDS011;2753;49.196;8.286;2022-12-29T01:14:33;3.23;;;1.47;;
5460;SDS011;2753;49.196;8.286;2022-12-29T01:16:58;3.63;;;1.43;;
5460;SDS011;2753;49.196;8.286;2022-12-29T01:19:24;3.73;;;1.53;;
5460;SDS011;2753;49.196;8.286;2022-12-29T01:21:51;3.43;;;1.40;;
5460;SDS011;2753;49.196;8.286;2022-12-29T01:24:17;6.23;;;1.43;;
5460;SDS011;2753;49.196;8.286;2022-12-29T01:26:43;4.90;;;1.63;;
5460;SDS011;2753;49.196;8.286;2022-12-29T01:29:09;6.40;;;3.17;;
5460;SDS011;2753;49.196;8.286;2022-12-29T01:31:35;21.43;;;3.60;;
5460;SDS011;2753;49.196;8.286;2022-12-29T01:34:01;4.20;;;1.97;;
5460;SDS011;2753;49.196;8.286;2022-12-29T01:36:26;4.07;;;2.50;;
5460;SDS011;2753;49.196;8.286;2022-12-29T01:38:52;12.23;;;4.70;;
5460;SDS011;2753;49.196;8.286;2022-12-29T01:41:18;3.43;;;2.17;;
5460;SDS011;2753;49.196;8.286;2022-12-29T01:46:22;4.03;;;1.67;;
5460;SDS011;2753;49.196;8.286;2022-12-29T01:48:52;5.33;;;1.20;;
5460;SDS011;2753;49.196;8.286;2022-12-29T01:51:23;4.03;;;1.63;;
5460;SDS011;2753;49.196;8.286;2022-12-29T01:53:51;1.23;;;1.10;;
5460;SDS011;2753;49.196;8.286;2022-12-29T01:56:18;2.83;;;1.30;;
5460;SDS011;2753;49.196;8.286;2022-12-29T01:58:47;1.63;;;1.53;;
5460;SDS011;2753;49.196;8.286;2022-12-29T02:01:19;2.10;;;1.53;;
5460;SDS011;2753;49.196;8.286;2022-12-29T02:03:46;2.90;;;1.40;;
5460;SDS011;2753;49.196;8.286;2022-12-29T02:06:21;6.00;;;1.53;;
5460;SDS011;2753;49.196;8.286;2022-12-29T02:08:49;3.53;;;1.10;;
5460;SDS011;2753;49.196;8.286;2022-12-29T02:11:17;2.20;;;1.63;;
5460;SDS011;2753;49.196;8.286;2022-12-29T02:13:44;6.57;;;1.57;;
5460;SDS011;2753;49.196;8.286;2022-12-29T02:38:48;5.07;;;1.97;;
5460;SDS011;2753;49.196;8.286;2022-12-29T02:41:32;1.33;;;1.07;;
5460;SDS011;2753;49.196;8.286;2022-12-29T02:47:00;7.63;;;1.43;;
5460;SDS011;2753;49.196;8.286;2022-12-29T02:52:31;1.63;;;0.80;;
5460;SDS011;2753;49.196;8.286;2022-12-29T02:55:02;1.60;;;1.33;;
5460;SDS011;2753;49.196;8.286;2022-12-29T02:57:30;2.30;;;1.40;;
5460;SDS011;2753;49.196;8.286;2022-12-29T02:59:59;2.67;;;1.80;;
5460;SDS011;2753;49.196;8.286;2022-12-29T03:08:06;4.33;;;1.60;;
5460;SDS011;2753;49.196;8.286;2022-12-29T03:11:08;2.10;;;1.70;;
5460;SDS011;2753;49.196;8.286;2022-12-29T03:13:56;2.17;;;1.20;;
5460;SDS011;2753;49.196;8.286;2022-12-29T03:16:53;1.73;;;1.40;;
5460;SDS011;2753;49.196;8.286;2022-12-29T03:19:28;4.50;;;1.37;;
5460;SDS011;2753;49.196;8.286;2022-12-29T03:22:07;1.40;;;1.27;;
5460;SDS011;2753;49.196;8.286;2022-12-29T03:24:57;1.30;;;1.30;;
5460;SDS011;2753;49.196;8.286;2022-12-29T03:27:36;1.30;;;1.20;;
5460;SDS011;2753;49.196;8.286;2022-12-29T03:30:05;3.17;;;1.40;;
5460;SDS011;2753;49.196;8.286;2022-12-29T03:32:42;2.40;;;1.07;;
5460;SDS011;2753;49.196;8.286;2022-12-29T03:35:14;1.40;;;1.30;;
5460;SDS011;2753;49.196;8.286;2022-12-29T03:37:50;3.43;;;1.17;;
5460;SDS011;2753;49.196;8.286;2022-12-29T03:40:35;2.97;;;1.70;;
5460;SDS011;2753;49.196;8.286;2022-12-29T03:45:33;3.30;;;1.70;;
5460;SDS011;2753;49.196;8.286;2022-12-29T03:47:58;4.67;;;2.83;;
5460;SDS011;2753;49.196;8.286;2022-12-29T03:50:24;3.10;;;2.27;;
5460;SDS011;2753;49.196;8.286;2022-12-29T03:52:50;2.20;;;1.73;;
5460;SDS011;2753;49.196;8.286;2022-12-29T03:55:16;1.47;;;1.27;;
5460;SDS011;2753;49.196;8.286;2022-12-29T03:57:41;1.87;;;1.23;;
5460;SDS011;2753;49.196;8.286;2022-12-29T04:00:07;3.27;;;1.33;;
5460;SDS011;2753;49.196;8.286;2022-12-29T04:02:33;1.40;;;1.30;;
5460;SDS011;2753;49.196;8.286;2022-12-29T04:05:02;3.37;;;1.47;;
5460;SDS011;2753;49.196;8.286;2022-12-29T04:07:28;1.27;;;1.20;;
5460;SDS011;2753;49.196;8.286;2022-12-29T04:09:54;4.47;;;1.77;;
5460;SDS011;2753;49.196;8.286;2022-12-29T04:12:20;1.47;;;1.13;;
5460;SDS011;2753;49.196;8.286;2022-12-29T04:14:45;1.63;;;1.17;;
5460;SDS011;2753;49.196;8.286;2022-12-29T04:17:11;2.20;;;1.00;;
5460;SDS011;2753;49.196;8.286;2022-12-29T04:19:37;1.53;;;1.07;;
5460;SDS011;2753;49.196;8.286;2022-12-29T04:22:03;1.43;;;1.10;;
5460;SDS011;2753;49.196;8.286;2022-12-29T04:24:28;2.17;;;1.20;;
5460;SDS011;2753;49.196;8.286;2022-12-29T04:26:54;4.37;;;1.40;;
5460;SDS011;2753;49.196;8.286;2022-12-29T04:29:20;9.60;;;0.97;;
5460;SDS011;2753;49.196;8.286;2022-12-29T04:31:46;1.37;;;1.03;;
5460;SDS011;2753;49.196;8.286;2022-12-29T04:34:11;0.80;;;0.70;;
5460;SDS011;2753;49.196;8.286;2022-12-29T04:36:37;2.50;;;1.17;;
5460;SDS011;2753;49.196;8.286;2022-12-29T04:39:04;4.40;;;1.60;;
5460;SDS011;2753;49.196;8.286;2022-12-29T04:41:30;4.30;;;1.50;;
5460;SDS011;2753;49.196;8.286;2022-12-29T04:43:56;8.23;;;4.07;;
5460;SDS011;2753;49.196;8.286;2022-12-29T04:46:22;6.67;;;4.40;;
5460;SDS011;2753;49.196;8.286;2022-12-29T04:48:47;2.10;;;1.90;;
5460;SDS011;2753;49.196;8.286;2022-12-29T04:51:13;1.47;;;1.20;;
5460;SDS011;2753;49.196;8.286;2022-12-29T04:53:39;1.03;;;1.03;;
5460;SDS011;2753;49.196;8.286;2022-12-29T04:56:05;3.17;;;1.20;;
5460;SDS011;2753;49.196;8.286;2022-12-29T04:58:32;2.63;;;1.33;;
5460;SDS011;2753;49.196;8.286;2022-12-29T05:00:58;2.17;;;1.23;;
5460;SDS011;2753;49.196;8.286;2022-12-29T05:03:23;2.00;;;1.07;;
5460;SDS011;2753;49.196;8.286;2022-12-29T05:05:49;4.30;;;1.53;;
5460;SDS011;2753;49.196;8.286;2022-12-29T05:08:18;1.27;;;1.17;;
5460;SDS011;2753;49.196;8.286;2022-12-29T05:10:44;3.90;;;1.60;;
5460;SDS011;2753;49.196;8.286;2022-12-29T05:13:10;1.27;;;1.17;;
5460;SDS011;2753;49.196;8.286;2022-12-29T05:15:36;1.83;;;1.40;;
5460;SDS011;2753;49.196;8.286;2022-12-29T05:18:01;2.30;;;1.10;;
5460;SDS011;2753;49.196;8.286;2022-12-29T05:20:27;2.57;;;1.57;;
5460;SDS011;2753;49.196;8.286;2022-12-29T05:22:53;5.83;;;1.83;;
5460;SDS011;2753;49.196;8.286;2022-12-29T05:25:18;2.83;;;1.37;;
5460;SDS011;2753;49.196;8.286;2022-12-29T05:27:44;2.70;;;1.37;;
5460;SDS011;2753;49.196;8.286;2022-12-29T05:30:10;3.80;;;2.30;;
5460;SDS011;2753;49.196;8.286;2022-12-29T05:32:36;3.33;;;2.70;;
5460;SDS011;2753;49.196;8.286;2022-12-29T05:35:02;2.30;;;1.90;;
5460;SDS011;2753;49.196;8.286;2022-12-29T05:37:28;4.30;;;1.60;;
5460;SDS011;2753;49.196;8.286;2022-12-29T05:39:53;4.03;;;2.13;;
5460;SDS011;2753;49.196;8.286;2022-12-29T05:42:19;2.13;;;1.60;;
5460;SDS011;2753;49.196;8.286;2022-12-29T05:44:44;2.07;;;1.40;;
5460;SDS011;2753;49.196;8.286;2022-12-29T05:47:10;3.23;;;1.40;;
5460;SDS011;2753;49.196;8.286;2022-12-29T05:49:36;6.33;;;1.53;;
5460;SDS011;2753;49.196;8.286;2022-12-29T05:52:01;3.77;;;1.60;;
5460;SDS011;2753;49.196;8.286;2022-12-29T05:54:27;1.63;;;1.20;;
5460;SDS011;2753;49.196;8.286;2022-12-29T05:56:53;12.23;;;2.33;;
5460;SDS011;2753;49.196;8.286;2022-12-29T05:59:19;1.40;;;1.30;;
5460;SDS011;2753;49.196;8.286;2022-12-29T06:01:44;2.40;;;1.97;;
5460;SDS011;2753;49.196;8.286;2022-12-29T06:04:10;3.60;;;1.70;;
5460;SDS011;2753;49.196;8.286;2022-12-29T06:06:36;1.73;;;1.67;;
5460;SDS011;2753;49.196;8.286;2022-12-29T06:09:02;5.17;;;1.90;;
5460;SDS011;2753;49.196;8.286;2022-12-29T06:11:27;2.50;;;1.27;;
5460;SDS011;2753;49.196;8.286;2022-12-29T06:13:54;5.60;;;1.40;;
5460;SDS011;2753;49.196;8.286;2022-12-29T06:16:20;6.80;;;1.40;;
5460;SDS011;2753;49.196;8.286;2022-12-29T06:18:45;1.63;;;1.37;;
5460;SDS011;2753;49.196;8.286;2022-12-29T06:21:11;4.07;;;1.90;;
5460;SDS011;2753;49.196;8.286;2022-12-29T06:23:37;4.20;;;1.30;;
5460;SDS011;2753;49.196;8.286;2022-12-29T06:26:02;1.20;;;0.90;;
5460;SDS011;2753;49.196;8.286;2022-12-29T06:28:28;10.40;;;1.70;;
5460;SDS011;2753;49.196;8.286;2022-12-29T06:30:54;2.00;;;1.50;;
5460;SDS011;2753;49.196;8.286;2022-12-29T06:33:19;3.13;;;1.40;;
5460;SDS011;2753;49.196;8.286;2022-12-29T06:35:45;1.93;;;1.53;;
5460;SDS011;2753;49.196;8.286;2022-12-29T06:38:11;5.33;;;2.00;;
5460;SDS011;2753;49.196;8.286;2022-12-29T06:40:37;3.17;;;2.07;;
5460;SDS011;2753;49.196;8.286;2022-12-29T06:43:03;3.20;;;2.10;;
5460;SDS011;2753;49.196;8.286;2022-12-29T06:45:29;3.80;;;1.87;;
5460;SDS011;2753;49.196;8.286;2022-12-29T06:47:54;7.30;;;1.87;;
5460;SDS011;2753;49.196;8.286;2022-12-29T06:50:20;3.67;;;3.37;;
5460;SDS011;2753;49.196;8.286;2022-12-29T06:52:46;6.80;;;3.20;;
5460;SDS011;2753;49.196;8.286;2022-12-29T06:55:12;9.80;;;3.10;;
5460;SDS011;2753;49.196;8.286;2022-12-29T06:57:37;3.40;;;3.30;;
5460;SDS011;2753;49.196;8.286;2022-12-29T07:00:03;5.40;;;2.33;;
5460;SDS011;2753;49.196;8.286;2022-12-29T07:02:30;5.43;;;4.23;;
5460;SDS011;2753;49.196;8.286;2022-12-29T07:04:55;2.10;;;1.90;;
5460;SDS011;2753;49.196;8.286;2022-12-29T07:07:21;4.10;;;2.13;;
5460;SDS011;2753;49.196;8.286;2022-12-29T07:09:47;2.83;;;2.13;;
5460;SDS011;2753;49.196;8.286;2022-12-29T07:12:12;5.20;;;3.50;;
5460;SDS011;2753;49.196;8.286;2022-12-29T07:14:38;7.80;;;4.70;;
5460;SDS011;2753;49.196;8.286;2022-12-29T07:17:04;7.17;;;5.17;;
5460;SDS011;2753;49.196;8.286;2022-12-29T07:19:31;4.97;;;2.20;;
5460;SDS011;2753;49.196;8.286;2022-12-29T07:21:57;4.37;;;2.73;;
5460;SDS011;2753;49.196;8.286;2022-12-29T07:24:23;8.17;;;4.50;;
5460;SDS011;2753;49.196;8.286;2022-12-29T07:26:50;5.53;;;3.00;;
5460;SDS011;2753;49.196;8.286;2022-12-29T07:29:16;5.47;;;3.07;;
5460;SDS011;2753;49.196;8.286;2022-12-29T07:31:42;3.60;;;1.93;;
5460;SDS011;2753;49.196;8.286;2022-12-29T07:34:08;5.33;;;3.70;;
5460;SDS011;2753;49.196;8.286;2022-12-29T07:36:34;3.10;;;1.90;;
5460;SDS011;2753;49.196;8.286;2022-12-29T07:39:00;1.43;;;1.33;;
5460;SDS011;2753;49.196;8.286;2022-12-29T07:41:26;2.03;;;1.93;;
5460;SDS011;2753;49.196;8.286;2022-12-29T07:43:52;4.00;;;2.50;;
5460;SDS011;2753;49.196;8.286;2022-12-29T07:46:18;5.00;;;4.23;;
5460;SDS011;2753;49.196;8.286;2022-12-29T07:48:44;3.27;;;2.57;;
5460;SDS011;2753;49.196;8.286;2022-12-29T07:51:10;7.60;;;2.57;;
5460;SDS011;2753;49.196;8.286;2022-12-29T07:53:36;3.73;;;1.57;;
5460;SDS011;2753;49.196;8.286;2022-12-29T07:56:02;4.77;;;2.20;;
5460;SDS011;2753;49.196;8.286;2022-12-29T07:58:28;2.23;;;2.13;;
5460;SDS011;2753;49.196;8.286;2022-12-29T08:00:54;4.87;;;2.07;;
5460;SDS011;2753;49.196;8.286;2022-12-29T08:03:20;3.93;;;2.03;;
5460;SDS011;2753;49.196;8.286;2022-12-29T08:05:46;2.60;;;2.40;;
5460;SDS011;2753;49.196;8.286;2022-12-29T08:08:12;5.00;;;2.90;;
5460;SDS011;2753;49.196;8.286;2022-12-29T08:10:37;8.17;;;2.50;;
5460;SDS011;2753;49.196;8.286;2022-12-29T08:13:03;2.33;;;2.23;;
5460;SDS011;2753;49.196;8.286;2022-12-29T08:15:29;24.53;;;11.57;;
5460;SDS011;2753;49.196;8.286;2022-12-29T08:17:54;13.40;;;5.27;;
5460;SDS011;2753;49.196;8.286;2022-12-29T08:20:20;10.30;;;5.37;;
5460;SDS011;2753;49.196;8.286;2022-12-29T08:22:46;3.40;;;2.40;;
5460;SDS011;2753;49.196;8.286;2022-12-29T08:25:11;3.27;;;2.20;;
5460;SDS011;2753;49.196;8.286;2022-12-29T08:27:37;3.13;;;1.73;;
5460;SDS011;2753;49.196;8.286;2022-12-29T08:30:03;2.60;;;2.00;;
5460;SDS011;2753;49.196;8.286;2022-12-29T08:32:29;3.53;;;1.97;;
5460;SDS011;2753;49.196;8.286;2022-12-29T08:34:55;7.27;;;2.73;;
5460;SDS011;2753;49.196;8.286;2022-12-29T08:37:21;3.40;;;1.60;;
5460;SDS011;2753;49.196;8.286;2022-12-29T08:39:47;4.00;;;1.43;;
5460;SDS011;2753;49.196;8.286;2022-12-29T08:42:13;1.60;;;1.50;;
5460;SDS011;2753;49.196;8.286;2022-12-29T08:44:39;4.80;;;1.90;;
5460;SDS011;2753;49.196;8.286;2022-12-29T08:47:04;8.70;;;2.03;;
5460;SDS011;2753;49.196;8.286;2022-12-29T08:49:30;4.20;;;2.27;;
5460;SDS011;2753;49.196;8.286;2022-12-29T08:51:57;4.90;;;1.80;;
5460;SDS011;2753;49.196;8.286;2022-12-29T08:54:22;3.47;;;2.10;;
5460;SDS011;2753;49.196;8.286;2022-12-29T08:56:48;4.53;;;2.00;;
5460;SDS011;2753;49.196;8.286;2022-12-29T08:59:14;3.03;;;2.13;;
5460;SDS011;2753;49.196;8.286;2022-12-29T09:01:39;2.10;;;1.90;;
5460;SDS011;2753;49.196;8.286;2022-12-29T09:04:05;3.90;;;1.87;;
5460;SDS011;2753;49.196;8.286;2022-12-29T09:06:32;8.20;;;2.23;;
5460;SDS011;2753;49.196;8.286;2022-12-29T09:08:58;5.03;;;2.57;;
5460;SDS011;2753;49.196;8.286;2022-12-29T09:11:24;2.43;;;2.23;;
5460;SDS011;2753;49.196;8.286;2022-12-29T09:13:51;2.10;;;1.50;;
5460;SDS011;2753;49.196;8.286;2022-12-29T09:16:17;2.70;;;2.23;;
5460;SDS011;2753;49.196;8.286;2022-12-29T09:18:45;5.73;;;2.00;;
5460;SDS011;2753;49.196;8.286;2022-12-29T09:21:11;4.37;;;2.00;;
5460;SDS011;2753;49.196;8.286;2022-12-29T09:23:37;2.77;;;2.13;;
5460;SDS011;2753;49.196;8.286;2022-12-29T09:26:04;2.50;;;1.53;;
5460;SDS011;2753;49.196;8.286;2022-12-29T09:28:30;4.53;;;2.20;;
5460;SDS011;2753;49.196;8.286;2022-12-29T09:30:56;4.07;;;2.60;;
5460;SDS011;2753;49.196;8.286;2022-12-29T09:33:23;3.67;;;2.47;;
5460;SDS011;2753;49.196;8.286;2022-12-29T09:35:53;5.77;;;3.30;;
5460;SDS011;2753;49.196;8.286;2022-12-29T09:38:20;2.97;;;2.50;;
5460;SDS011;2753;49.196;8.286;2022-12-29T09:40:51;4.10;;;2.93;;
5460;SDS011;2753;49.196;8.286;2022-12-29T09:45:53;5.17;;;3.00;;
5460;SDS011;2753;49.196;8.286;2022-12-29T09:48:24;2.50;;;2.30;;
5460;SDS011;2753;49.196;8.286;2022-12-29T09:50:59;7.23;;;2.40;;
5460;SDS011;2753;49.196;8.286;2022-12-29T09:53:37;4.23;;;2.40;;
5460;SDS011;2753;49.196;8.286;2022-12-29T09:56:15;3.50;;;2.17;;
5460;SDS011;2753;49.196;8.286;2022-12-29T09:58:50;7.40;;;2.43;;
5460;SDS011;2753;49.196;8.286;2022-12-29T10:03:57;2.70;;;1.97;;
5460;SDS011;2753;49.196;8.286;2022-12-29T10:20:28;3.03;;;2.40;;
5460;SDS011;2753;49.196;8.286;2022-12-29T10:23:05;3.57;;;2.90;;
5460;SDS011;2753;49.196;8.286;2022-12-29T10:25:41;5.47;;;2.30;;
5460;SDS011;2753;49.196;8.286;2022-12-29T10:28:33;7.23;;;2.17;;
5460;SDS011;2753;49.196;8.286;2022-12-29T10:30:59;2.97;;;2.50;;
5460;SDS011;2753;49.196;8.286;2022-12-29T10:33:33;2.80;;;2.27;;
5460;SDS011;2753;49.196;8.286;2022-12-29T10:36:09;4.00;;;1.97;;
5460;SDS011;2753;49.196;8.286;2022-12-29T10:38:42;7.97;;;2.60;;
5460;SDS011;2753;49.196;8.286;2022-12-29T10:41:20;1.97;;;1.67;;
5460;SDS011;2753;49.196;8.286;2022-12-29T10:44:09;4.40;;;2.07;;
5460;SDS011;2753;49.196;8.286;2022-12-29T10:46:39;1.50;;;1.30;;
5460;SDS011;2753;49.196;8.286;2022-12-29T10:49:06;1.87;;;1.10;;
5460;SDS011;2753;49.196;8.286;2022-12-29T10:51:42;5.33;;;1.83;;
5460;SDS011;2753;49.196;8.286;2022-12-29T10:54:11;2.97;;;1.90;;
5460;SDS011;2753;49.196;8.286;2022-12-29T10:57:13;3.70;;;1.30;;
5460;SDS011;2753;49.196;8.286;2022-12-29T10:59:53;2.00;;;1.90;;
5460;SDS011;2753;49.196;8.286;2022-12-29T11:07:29;4.43;;;2.40;;
5460;SDS011;2753;49.196;8.286;2022-12-29T11:13:00;4.40;;;2.73;;
5460;SDS011;2753;49.196;8.286;2022-12-29T11:15:44;7.23;;;2.93;;
5460;SDS011;2753;49.196;8.286;2022-12-29T11:18:31;5.23;;;2.33;;
5460;SDS011;2753;49.196;8.286;2022-12-29T11:21:02;4.50;;;2.10;;
5460;SDS011;2753;49.196;8.286;2022-12-29T11:26:20;6.27;;;2.80;;
5460;SDS011;2753;49.196;8.286;2022-12-29T11:31:44;8.30;;;2.90;;
5460;SDS011;2753;49.196;8.286;2022-12-29T11:34:24;14.47;;;2.90;;
5460;SDS011;2753;49.196;8.286;2022-12-29T11:37:43;8.23;;;2.00;;
5460;SDS011;2753;49.196;8.286;2022-12-29T11:40:18;8.23;;;2.00;;
5460;SDS011;2753;49.196;8.286;2022-12-29T11:42:52;5.47;;;2.70;;
5460;SDS011;2753;49.196;8.286;2022-12-29T11:45:21;3.47;;;2.57;;
5460;SDS011;2753;49.196;8.286;2022-12-29T11:47:51;5.73;;;2.90;;
5460;SDS011;2753;49.196;8.286;2022-12-29T11:50:26;3.80;;;1.87;;
5460;SDS011;2753;49.196;8.286;2022-12-29T11:52:58;4.13;;;2.20;;
5460;SDS011;2753;49.196;8.286;2022-12-29T11:55:27;3.50;;;1.80;;
5460;SDS011;2753;49.196;8.286;2022-12-29T11:57:54;7.80;;;2.43;;
5460;SDS011;2753;49.196;8.286;2022-12-29T12:00:23;5.93;;;2.10;;
5460;SDS011;2753;49.196;8.286;2022-12-29T12:03:02;5.70;;;2.17;;
5460;SDS011;2753;49.196;8.286;2022-12-29T12:08:35;3.90;;;1.77;;
5460;SDS011;2753;49.196;8.286;2022-12-29T12:11:16;2.33;;;1.73;;
5460;SDS011;2753;49.196;8.286;2022-12-29T12:13:52;4.87;;;1.63;;
5460;SDS011;2753;49.196;8.286;2022-12-29T12:16:25;1.77;;;1.67;;
5460;SDS011;2753;49.196;8.286;2022-12-29T12:19:20;5.37;;;1.43;;
5460;SDS011;2753;49.196;8.286;2022-12-29T12:21:52;7.87;;;2.20;;
5460;SDS011;2753;49.196;8.286;2022-12-29T12:27:02;8.63;;;2.50;;
5460;SDS011;2753;49.196;8.286;2022-12-29T12:32:26;5.60;;;3.30;;
5460;SDS011;2753;49.196;8.286;2022-12-29T12:34:59;8.00;;;3.80;;
5460;SDS011;2753;49.196;8.286;2022-12-29T12:42:58;6.93;;;2.40;;
5460;SDS011;2753;49.196;8.286;2022-12-29T12:45:38;9.07;;;2.90;;
5460;SDS011;2753;49.196;8.286;2022-12-29T12:51:14;4.90;;;3.43;;
5460;SDS011;2753;49.196;8.286;2022-12-29T12:59:24;2.00;;;1.57;;
5460;SDS011;2753;49.196;8.286;2022-12-29T13:19:09;5.87;;;3.60;;
5460;SDS011;2753;49.196;8.286;2022-12-29T13:29:59;5.57;;;1.77;;
5460;SDS011;2753;49.196;8.286;2022-12-29T13:32:34;5.13;;;1.67;;
5460;SDS011;2753;49.196;8.286;2022-12-29T13:37:47;1.63;;;1.43;;
5460;SDS011;2753;49.196;8.286;2022-12-29T13:40:32;2.50;;;2.03;;
5460;SDS011;2753;49.196;8.286;2022-12-29T13:43:03;4.90;;;1.30;;
5460;SDS011;2753;49.196;8.286;2022-12-29T13:45:30;4.80;;;1.80;;
5460;SDS011;2753;49.196;8.286;2022-12-29T13:48:06;3.47;;;1.50;;
5460;SDS011;2753;49.196;8.286;2022-12-29T13:50:59;2.73;;;1.30;;
5460;SDS011;2753;49.196;8.286;2022-12-29T13:56:12;2.53;;;2.10;;
5460;SDS011;2753;49.196;8.286;2022-12-29T13:59:02;3.10;;;2.00;;
5460;SDS011;2753;49.196;8.286;2022-12-29T14:01:39;3.47;;;1.43;;
5460;SDS011;2753;49.196;8.286;2022-12-29T14:04:16;2.83;;;1.77;;
5460;SDS011;2753;49.196;8.286;2022-12-29T14:07:04;2.50;;;1.40;;
5460;SDS011;2753;49.196;8.286;2022-12-29T14:15:04;5.30;;;2.20;;
5460;SDS011;2753;49.196;8.286;2022-12-29T14:17:39;9.40;;;3.40;;
5460;SDS011;2753;49.196;8.286;2022-12-29T14:20:21;4.27;;;1.90;;
5460;SDS011;2753;49.196;8.286;2022-12-29T14:28:26;2.50;;;1.80;;
5460;SDS011;2753;49.196;8.286;2022-12-29T14:31:00;5.80;;;2.53;;
5460;SDS011;2753;49.196;8.286;2022-12-29T14:36:34;7.73;;;3.57;;
5460;SDS011;2753;49.196;8.286;2022-12-29T14:39:03;3.30;;;1.00;;
5460;SDS011;2753;49.196;8.286;2022-12-29T14:41:49;2.90;;;1.63;;
5460;SDS011;2753;49.196;8.286;2022-12-29T14:44:33;2.60;;;1.60;;
5460;SDS011;2753;49.196;8.286;2022-12-29T14:47:11;2.50;;;1.30;;
5460;SDS011;2753;49.196;8.286;2022-12-29T14:49:44;12.73;;;1.67;;
5460;SDS011;2753;49.196;8.286;2022-12-29T14:54:49;2.67;;;1.47;;
5460;SDS011;2753;49.196;8.286;2022-12-29T15:00:06;3.47;;;3.13;;
5460;SDS011;2753;49.196;8.286;2022-12-29T15:02:40;4.37;;;3.40;;
5460;SDS011;2753;49.196;8.286;2022-12-29T15:08:21;5.20;;;2.73;;
5460;SDS011;2753;49.196;8.286;2022-12-29T15:11:06;21.37;;;7.33;;
5460;SDS011;2753;49.196;8.286;2022-12-29T15:13:39;11.37;;;4.80;;
5460;SDS011;2753;49.196;8.286;2022-12-29T15:16:24;5.30;;;2.83;;
5460;SDS011;2753;49.196;8.286;2022-12-29T15:18:57;3.03;;;2.73;;
5460;SDS011;2753;49.196;8.286;2022-12-29T15:21:26;2.73;;;2.53;;
5460;SDS011;2753;49.196;8.286;2022-12-29T15:23:58;2.50;;;2.30;;
5460;SDS011;2753;49.196;8.286;2022-12-29T15:26:41;2.43;;;1.50;;
5460;SDS011;2753;49.196;8.286;2022-12-29T15:34:40;6.90;;;2.90;;
5460;SDS011;2753;49.196;8.286;2022-12-29T15:37:07;3.67;;;2.90;;
5460;SDS011;2753;49.196;8.286;2022-12-29T15:39:34;1.70;;;1.60;;
5460;SDS011;2753;49.196;8.286;2022-12-29T15:42:15;4.37;;;1.77;;
5460;SDS011;2753;49.196;8.286;2022-12-29T15:44:54;3.50;;;2.03;;
5460;SDS011;2753;49.196;8.286;2022-12-29T15:47:24;2.37;;;2.17;;
5460;SDS011;2753;49.196;8.286;2022-12-29T15:49:58;2.90;;;1.97;;
5460;SDS011;2753;49.196;8.286;2022-12-29T15:52:27;2.23;;;1.60;;
5460;SDS011;2753;49.196;8.286;2022-12-29T15:54:55;6.90;;;1.43;;
5460;SDS011;2753;49.196;8.286;2022-12-29T15:57:26;4.07;;;2.07;;
5460;SDS011;2753;49.196;8.286;2022-12-29T16:00:02;3.40;;;1.73;;
5460;SDS011;2753;49.196;8.286;2022-12-29T16:02:31;6.20;;;4.30;;
5460;SDS011;2753;49.196;8.286;2022-12-29T16:04:56;9.10;;;3.90;;
5460;SDS011;2753;49.196;8.286;2022-12-29T16:07:32;3.13;;;2.63;;
5460;SDS011;2753;49.196;8.286;2022-12-29T16:10:01;4.20;;;2.73;;
5460;SDS011;2753;49.196;8.286;2022-12-29T16:12:34;6.00;;;2.67;;
5460;SDS011;2753;49.196;8.286;2022-12-29T16:15:03;3.80;;;1.50;;
5460;SDS011;2753;49.196;8.286;2022-12-29T16:17:31;4.60;;;1.90;;
5460;SDS011;2753;49.196;8.286;2022-12-29T16:22:48;5.40;;;2.40;;
5460;SDS011;2753;49.196;8.286;2022-12-29T16:25:29;6.80;;;3.80;;
5460;SDS011;2753;49.196;8.286;2022-12-29T16:27:59;5.13;;;3.00;;
5460;SDS011;2753;49.196;8.286;2022-12-29T16:30:33;3.07;;;1.80;;
5460;SDS011;2753;49.196;8.286;2022-12-29T16:33:03;2.50;;;1.33;;
5460;SDS011;2753;49.196;8.286;2022-12-29T16:35:45;3.33;;;1.63;;
5460;SDS011;2753;49.196;8.286;2022-12-29T16:40:54;6.13;;;2.90;;
5460;SDS011;2753;49.196;8.286;2022-12-29T16:51:05;2.83;;;1.50;;
5460;SDS011;2753;49.196;8.286;2022-12-29T16:53:38;6.93;;;1.57;;
5460;SDS011;2753;49.196;8.286;2022-12-29T16:56:20;5.40;;;2.20;;
5460;SDS011;2753;49.196;8.286;2022-12-29T16:58:56;4.83;;;2.40;;
5460;SDS011;2753;49.196;8.286;2022-12-29T17:01:47;6.63;;;2.87;;
5460;SDS011;2753;49.196;8.286;2022-12-29T17:04:12;4.10;;;2.10;;
5460;SDS011;2753;49.196;8.286;2022-12-29T17:06:39;2.63;;;2.37;;
5460;SDS011;2753;49.196;8.286;2022-12-29T17:09:24;5.03;;;3.43;;
5460;SDS011;2753;49.196;8.286;2022-12-29T17:11:52;7.60;;;3.80;;
5460;SDS011;2753;49.196;8.286;2022-12-29T17:17:03;6.27;;;4.10;;
5460;SDS011;2753;49.196;8.286;2022-12-29T17:19:56;7.13;;;5.23;;
5460;SDS011;2753;49.196;8.286;2022-12-29T17:22:28;7.67;;;5.20;;
5460;SDS011;2753;49.196;8.286;2022-12-29T17:24:55;13.80;;;6.57;;
5460;SDS011;2753;49.196;8.286;2022-12-29T17:27:27;9.03;;;5.10;;
5460;SDS011;2753;49.196;8.286;2022-12-29T17:30:01;8.77;;;4.50;;
5460;SDS011;2753;49.196;8.286;2022-12-29T17:32:30;15.23;;;6.97;;
5460;SDS011;2753;49.196;8.286;2022-12-29T17:34:56;12.73;;;6.90;;
5460;SDS011;2753;49.196;8.286;2022-12-29T17:39:49;12.30;;;5.80;;
5460;SDS011;2753;49.196;8.286;2022-12-29T17:42:15;10.57;;;5.20;;
5460;SDS011;2753;49.196;8.286;2022-12-29T17:44:43;5.40;;;3.13;;
5460;SDS011;2753;49.196;8.286;2022-12-29T17:47:12;4.93;;;2.20;;
5460;SDS011;2753;49.196;8.286;2022-12-29T17:49:39;7.67;;;3.03;;
5460;SDS011;2753;49.196;8.286;2022-12-29T17:52:10;6.37;;;1.60;;
5460;SDS011;2753;49.196;8.286;2022-12-29T17:54:46;9.90;;;1.90;;
5460;SDS011;2753;49.196;8.286;2022-12-29T17:57:15;5.83;;;2.00;;
5460;SDS011;2753;49.196;8.286;2022-12-29T17:59:42;19.93;;;10.43;;
5460;SDS011;2753;49.196;8.286;2022-12-29T18:02:22;11.10;;;4.67;;
5460;SDS011;2753;49.196;8.286;2022-12-29T18:04:56;11.73;;;6.53;;
5460;SDS011;2753;49.196;8.286;2022-12-29T18:07:25;13.63;;;6.63;;
5460;SDS011;2753;49.196;8.286;2022-12-29T18:09:52;42.37;;;20.97;;
5460;SDS011;2753;49.196;8.286;2022-12-29T18:15:06;27.67;;;13.97;;
5460;SDS011;2753;49.196;8.286;2022-12-29T18:17:40;21.33;;;10.20;;
5460;SDS011;2753;49.196;8.286;2022-12-29T18:20:05;28.13;;;12.70;;
5460;SDS011;2753;49.196;8.286;2022-12-29T18:22:31;19.43;;;9.30;;
5460;SDS011;2753;49.196;8.286;2022-12-29T18:24:57;19.87;;;8.77;;
5460;SDS011;2753;49.196;8.286;2022-12-29T18:27:23;16.23;;;9.23;;
5460;SDS011;2753;49.196;8.286;2022-12-29T18:29:50;14.87;;;5.93;;
5460;SDS011;2753;49.196;8.286;2022-12-29T18:32:16;11.83;;;5.87;;
5460;SDS011;2753;49.196;8.286;2022-12-29T18:34:42;14.70;;;7.73;;